Terminal Aerodrome Forecast
Issued by NWS Blacksburg, VA

Home | Current Version | Previous Version | Text Only | Print | Product List | Glossary On
Versions: 1 2 3 4 5 6 7 8 9 10 11 12 13 14 15 16 17
000
FTUS41 KRNK 230539
TAFBLF
TAF
KBLF 230539Z 2306/2406 30010G20KT P6SM FEW025
     FM231500 31013G25KT P6SM SCT030
     FM240000 31008KT P6SM SKC=

USA.gov is the U.S. government's official web portal to all federal, state and local government web resources and services.